Ambleve, Belgium
Current Conditions -  °F | °C
As of 9:43 PM on Friday 31 Oct 2014 (Local Time) from EBLB Reporting Station
Clear Clear  
Wind Chill:   Ceiling: Unl
Heat Index:   Visibility: 4mi
Dew Point:   Wind: 2mph
Humidity: 93%   Direction: NA
Pressure: 30.24"   Gusts: NA
Location:  50.35°N, 6.17°E
Report Text: EBLB 312043Z AUTO VRB02KT 6000 NCD 09/08 Q1024 WHT
Loading
Personal Weather Stations






























Interactive Weather Map
Tropical Storm Tracking
New forecast layout! Learn more

10-Day Weather Forecast

Advertisements
Track Severe Weather on mobile